sensor_id;sensor_type;location;lat;lon;timestamp;P1;durP1;ratioP1;P2;durP2;ratioP2
65597;SDS011;52267;51.984;20.956;2023-02-03T00:02:08;7.70;;;4.60;;
65597;SDS011;52267;51.984;20.956;2023-02-03T00:04:35;8.30;;;4.50;;
65597;SDS011;52267;51.984;20.956;2023-02-03T00:07:03;7.20;;;4.40;;
65597;SDS011;52267;51.984;20.956;2023-02-03T00:09:30;9.40;;;4.90;;
65597;SDS011;52267;51.984;20.956;2023-02-03T00:11:57;8.00;;;3.90;;
65597;SDS011;52267;51.984;20.956;2023-02-03T00:14:24;7.00;;;3.80;;
65597;SDS011;52267;51.984;20.956;2023-02-03T00:16:51;6.60;;;4.00;;
65597;SDS011;52267;51.984;20.956;2023-02-03T00:19:18;7.60;;;4.20;;
65597;SDS011;52267;51.984;20.956;2023-02-03T00:21:45;7.90;;;4.90;;
65597;SDS011;52267;51.984;20.956;2023-02-03T00:24:12;7.90;;;4.40;;
65597;SDS011;52267;51.984;20.956;2023-02-03T00:26:43;7.70;;;4.00;;
65597;SDS011;52267;51.984;20.956;2023-02-03T00:29:10;7.40;;;4.50;;
65597;SDS011;52267;51.984;20.956;2023-02-03T00:31:37;6.20;;;4.20;;
65597;SDS011;52267;51.984;20.956;2023-02-03T00:34:05;11.20;;;4.60;;
65597;SDS011;52267;51.984;20.956;2023-02-03T00:36:32;7.20;;;4.40;;
65597;SDS011;52267;51.984;20.956;2023-02-03T00:38:59;7.40;;;4.90;;
65597;SDS011;52267;51.984;20.956;2023-02-03T00:41:29;7.20;;;4.30;;
65597;SDS011;52267;51.984;20.956;2023-02-03T00:43:57;9.40;;;4.30;;
65597;SDS011;52267;51.984;20.956;2023-02-03T00:46:24;7.40;;;4.40;;
65597;SDS011;52267;51.984;20.956;2023-02-03T00:48:51;9.30;;;4.80;;
65597;SDS011;52267;51.984;20.956;2023-02-03T00:51:18;10.50;;;3.90;;
65597;SDS011;52267;51.984;20.956;2023-02-03T00:53:47;5.90;;;3.70;;
65597;SDS011;52267;51.984;20.956;2023-02-03T00:56:14;6.60;;;3.90;;
65597;SDS011;52267;51.984;20.956;2023-02-03T00:58:41;9.70;;;3.90;;
65597;SDS011;52267;51.984;20.956;2023-02-03T01:01:09;7.00;;;3.50;;
65597;SDS011;52267;51.984;20.956;2023-02-03T01:03:36;4.30;;;3.00;;
65597;SDS011;52267;51.984;20.956;2023-02-03T01:06:13;6.20;;;3.70;;
65597;SDS011;52267;51.984;20.956;2023-02-03T01:08:44;6.80;;;3.30;;
65597;SDS011;52267;51.984;20.956;2023-02-03T01:11:15;5.50;;;3.60;;
65597;SDS011;52267;51.984;20.956;2023-02-03T01:13:44;6.80;;;3.70;;
65597;SDS011;52267;51.984;20.956;2023-02-03T01:16:13;8.70;;;5.10;;
65597;SDS011;52267;51.984;20.956;2023-02-03T01:18:41;7.20;;;3.90;;
65597;SDS011;52267;51.984;20.956;2023-02-03T01:21:12;8.30;;;3.90;;
65597;SDS011;52267;51.984;20.956;2023-02-03T01:23:44;8.60;;;3.70;;
65597;SDS011;52267;51.984;20.956;2023-02-03T01:26:14;8.40;;;3.70;;
65597;SDS011;52267;51.984;20.956;2023-02-03T01:28:42;8.40;;;4.00;;
65597;SDS011;52267;51.984;20.956;2023-02-03T01:31:12;7.60;;;3.70;;
65597;SDS011;52267;51.984;20.956;2023-02-03T01:33:41;7.50;;;3.90;;
65597;SDS011;52267;51.984;20.956;2023-02-03T01:36:12;5.70;;;3.70;;
65597;SDS011;52267;51.984;20.956;2023-02-03T01:38:39;6.10;;;4.00;;
65597;SDS011;52267;51.984;20.956;2023-02-03T01:41:11;7.90;;;4.00;;
65597;SDS011;52267;51.984;20.956;2023-02-03T01:43:46;8.50;;;4.60;;
65597;SDS011;52267;51.984;20.956;2023-02-03T01:51:50;7.40;;;4.10;;
65597;SDS011;52267;51.984;20.956;2023-02-03T01:54:25;7.70;;;4.90;;
65597;SDS011;52267;51.984;20.956;2023-02-03T01:57:04;8.00;;;4.30;;
65597;SDS011;52267;51.984;20.956;2023-02-03T01:59:34;8.70;;;4.50;;
65597;SDS011;52267;51.984;20.956;2023-02-03T02:02:03;7.30;;;4.20;;
65597;SDS011;52267;51.984;20.956;2023-02-03T02:04:42;8.40;;;4.50;;
65597;SDS011;52267;51.984;20.956;2023-02-03T02:07:14;6.70;;;4.30;;
65597;SDS011;52267;51.984;20.956;2023-02-03T02:09:43;7.60;;;3.70;;
65597;SDS011;52267;51.984;20.956;2023-02-03T02:12:11;5.80;;;3.90;;
65597;SDS011;52267;51.984;20.956;2023-02-03T02:14:38;6.60;;;4.30;;
65597;SDS011;52267;51.984;20.956;2023-02-03T02:38:29;7.10;;;3.70;;
65597;SDS011;52267;51.984;20.956;2023-02-03T02:41:05;5.80;;;2.90;;
65597;SDS011;52267;51.984;20.956;2023-02-03T02:43:41;7.80;;;4.20;;
65597;SDS011;52267;51.984;20.956;2023-02-03T02:46:11;8.40;;;4.70;;
65597;SDS011;52267;51.984;20.956;2023-02-03T02:51:19;8.20;;;4.00;;
65597;SDS011;52267;51.984;20.956;2023-02-03T02:53:55;5.70;;;3.90;;
65597;SDS011;52267;51.984;20.956;2023-02-03T02:56:26;6.80;;;3.90;;
65597;SDS011;52267;51.984;20.956;2023-02-03T02:58:55;7.50;;;4.20;;
65597;SDS011;52267;51.984;20.956;2023-02-03T03:01:23;7.70;;;4.40;;
65597;SDS011;52267;51.984;20.956;2023-02-03T03:03:51;7.10;;;4.20;;
65597;SDS011;52267;51.984;20.956;2023-02-03T03:06:25;8.40;;;4.90;;
65597;SDS011;52267;51.984;20.956;2023-02-03T03:09:03;8.20;;;4.30;;
65597;SDS011;52267;51.984;20.956;2023-02-03T03:11:36;7.20;;;3.10;;
65597;SDS011;52267;51.984;20.956;2023-02-03T03:14:09;6.90;;;3.40;;
65597;SDS011;52267;51.984;20.956;2023-02-03T03:16:40;8.20;;;3.80;;
65597;SDS011;52267;51.984;20.956;2023-02-03T03:19:17;9.40;;;4.40;;
65597;SDS011;52267;51.984;20.956;2023-02-03T03:21:56;8.40;;;4.20;;
65597;SDS011;52267;51.984;20.956;2023-02-03T03:24:36;6.70;;;3.20;;
65597;SDS011;52267;51.984;20.956;2023-02-03T03:27:40;6.60;;;3.50;;
65597;SDS011;52267;51.984;20.956;2023-02-03T03:30:16;6.40;;;3.20;;
65597;SDS011;52267;51.984;20.956;2023-02-03T03:32:46;5.70;;;3.30;;
65597;SDS011;52267;51.984;20.956;2023-02-03T03:35:14;8.40;;;3.60;;
65597;SDS011;52267;51.984;20.956;2023-02-03T03:37:49;7.20;;;3.80;;
65597;SDS011;52267;51.984;20.956;2023-02-03T03:40:28;7.40;;;3.50;;
65597;SDS011;52267;51.984;20.956;2023-02-03T03:43:15;5.30;;;3.60;;
65597;SDS011;52267;51.984;20.956;2023-02-03T03:48:27;8.50;;;3.80;;
65597;SDS011;52267;51.984;20.956;2023-02-03T03:51:02;7.40;;;4.10;;
65597;SDS011;52267;51.984;20.956;2023-02-03T03:53:34;10.20;;;3.80;;
65597;SDS011;52267;51.984;20.956;2023-02-03T03:56:05;6.50;;;3.90;;
65597;SDS011;52267;51.984;20.956;2023-02-03T03:58:36;6.40;;;3.70;;
65597;SDS011;52267;51.984;20.956;2023-02-03T04:01:05;7.60;;;3.30;;
65597;SDS011;52267;51.984;20.956;2023-02-03T04:03:45;7.30;;;3.30;;
65597;SDS011;52267;51.984;20.956;2023-02-03T04:06:14;5.40;;;3.10;;
65597;SDS011;52267;51.984;20.956;2023-02-03T04:08:41;6.60;;;3.20;;
65597;SDS011;52267;51.984;20.956;2023-02-03T04:11:08;5.80;;;3.00;;
65597;SDS011;52267;51.984;20.956;2023-02-03T04:13:35;8.00;;;3.60;;
65597;SDS011;52267;51.984;20.956;2023-02-03T04:16:02;5.50;;;2.60;;
65597;SDS011;52267;51.984;20.956;2023-02-03T04:18:29;7.50;;;3.60;;
65597;SDS011;52267;51.984;20.956;2023-02-03T04:20:57;11.10;;;5.20;;
65597;SDS011;52267;51.984;20.956;2023-02-03T04:23:24;8.00;;;3.60;;
65597;SDS011;52267;51.984;20.956;2023-02-03T04:25:51;7.60;;;4.10;;
65597;SDS011;52267;51.984;20.956;2023-02-03T04:28:18;10.70;;;4.30;;
65597;SDS011;52267;51.984;20.956;2023-02-03T04:30:45;7.50;;;4.10;;
65597;SDS011;52267;51.984;20.956;2023-02-03T04:33:12;10.00;;;3.40;;
65597;SDS011;52267;51.984;20.956;2023-02-03T04:35:39;7.80;;;3.90;;
65597;SDS011;52267;51.984;20.956;2023-02-03T04:38:06;7.00;;;3.70;;
65597;SDS011;52267;51.984;20.956;2023-02-03T04:40:33;9.90;;;3.80;;
65597;SDS011;52267;51.984;20.956;2023-02-03T04:43:05;9.80;;;3.60;;
65597;SDS011;52267;51.984;20.956;2023-02-03T04:45:33;6.90;;;3.40;;
65597;SDS011;52267;51.984;20.956;2023-02-03T04:48:00;8.80;;;3.50;;
65597;SDS011;52267;51.984;20.956;2023-02-03T04:50:27;6.10;;;2.90;;
65597;SDS011;52267;51.984;20.956;2023-02-03T04:52:54;7.30;;;3.70;;
65597;SDS011;52267;51.984;20.956;2023-02-03T04:55:25;6.90;;;4.50;;
65597;SDS011;52267;51.984;20.956;2023-02-03T05:00:24;8.10;;;4.00;;
65597;SDS011;52267;51.984;20.956;2023-02-03T05:02:52;8.30;;;4.40;;
65597;SDS011;52267;51.984;20.956;2023-02-03T05:05:19;5.50;;;3.70;;
65597;SDS011;52267;51.984;20.956;2023-02-03T05:07:47;8.40;;;3.90;;
65597;SDS011;52267;51.984;20.956;2023-02-03T05:10:14;7.10;;;3.00;;
65597;SDS011;52267;51.984;20.956;2023-02-03T05:12:41;6.50;;;3.50;;
65597;SDS011;52267;51.984;20.956;2023-02-03T05:15:09;4.10;;;3.00;;
65597;SDS011;52267;51.984;20.956;2023-02-03T05:17:36;11.00;;;3.60;;
65597;SDS011;52267;51.984;20.956;2023-02-03T05:20:20;9.40;;;4.00;;
65597;SDS011;52267;51.984;20.956;2023-02-03T05:22:47;9.00;;;3.90;;
65597;SDS011;52267;51.984;20.956;2023-02-03T05:25:15;6.80;;;3.10;;
65597;SDS011;52267;51.984;20.956;2023-02-03T05:27:42;5.60;;;2.90;;
65597;SDS011;52267;51.984;20.956;2023-02-03T05:30:09;6.40;;;3.60;;
65597;SDS011;52267;51.984;20.956;2023-02-03T05:32:37;8.20;;;3.70;;
65597;SDS011;52267;51.984;20.956;2023-02-03T05:35:04;5.40;;;3.10;;
65597;SDS011;52267;51.984;20.956;2023-02-03T05:37:31;9.10;;;3.70;;
65597;SDS011;52267;51.984;20.956;2023-02-03T05:39:59;7.20;;;3.80;;
65597;SDS011;52267;51.984;20.956;2023-02-03T05:42:47;6.80;;;3.60;;
65597;SDS011;52267;51.984;20.956;2023-02-03T05:45:15;7.30;;;3.20;;
65597;SDS011;52267;51.984;20.956;2023-02-03T05:47:42;7.00;;;3.40;;
65597;SDS011;52267;51.984;20.956;2023-02-03T05:50:09;8.40;;;3.60;;
65597;SDS011;52267;51.984;20.956;2023-02-03T05:52:36;8.30;;;3.90;;
65597;SDS011;52267;51.984;20.956;2023-02-03T05:55:04;5.60;;;3.60;;
65597;SDS011;52267;51.984;20.956;2023-02-03T05:57:31;6.90;;;3.90;;
65597;SDS011;52267;51.984;20.956;2023-02-03T05:59:58;7.90;;;3.90;;
65597;SDS011;52267;51.984;20.956;2023-02-03T06:02:25;7.50;;;4.60;;
65597;SDS011;52267;51.984;20.956;2023-02-03T06:04:52;8.40;;;4.70;;
65597;SDS011;52267;51.984;20.956;2023-02-03T06:07:19;7.90;;;4.30;;
65597;SDS011;52267;51.984;20.956;2023-02-03T06:09:46;8.80;;;4.40;;
65597;SDS011;52267;51.984;20.956;2023-02-03T06:12:14;8.50;;;4.60;;
65597;SDS011;52267;51.984;20.956;2023-02-03T06:14:41;10.50;;;4.50;;
65597;SDS011;52267;51.984;20.956;2023-02-03T06:17:09;14.40;;;7.40;;
65597;SDS011;52267;51.984;20.956;2023-02-03T06:19:36;16.10;;;6.30;;
65597;SDS011;52267;51.984;20.956;2023-02-03T06:22:03;19.80;;;9.00;;
65597;SDS011;52267;51.984;20.956;2023-02-03T06:24:29;23.20;;;11.20;;
65597;SDS011;52267;51.984;20.956;2023-02-03T06:26:57;19.30;;;8.80;;
65597;SDS011;52267;51.984;20.956;2023-02-03T06:29:24;10.20;;;4.70;;
65597;SDS011;52267;51.984;20.956;2023-02-03T06:31:51;15.90;;;7.50;;
65597;SDS011;52267;51.984;20.956;2023-02-03T06:34:18;11.30;;;5.30;;
65597;SDS011;52267;51.984;20.956;2023-02-03T06:36:45;23.60;;;10.00;;
65597;SDS011;52267;51.984;20.956;2023-02-03T06:39:13;35.60;;;10.70;;
65597;SDS011;52267;51.984;20.956;2023-02-03T06:41:41;21.30;;;9.50;;
65597;SDS011;52267;51.984;20.956;2023-02-03T06:44:08;17.40;;;8.70;;
65597;SDS011;52267;51.984;20.956;2023-02-03T06:46:36;18.10;;;8.10;;
65597;SDS011;52267;51.984;20.956;2023-02-03T06:49:03;18.70;;;8.40;;
65597;SDS011;52267;51.984;20.956;2023-02-03T06:51:30;23.00;;;9.30;;
65597;SDS011;52267;51.984;20.956;2023-02-03T06:53:57;27.20;;;12.60;;
65597;SDS011;52267;51.984;20.956;2023-02-03T06:56:24;37.40;;;14.80;;
65597;SDS011;52267;51.984;20.956;2023-02-03T06:58:51;42.10;;;17.50;;
65597;SDS011;52267;51.984;20.956;2023-02-03T07:01:18;28.50;;;12.80;;
65597;SDS011;52267;51.984;20.956;2023-02-03T07:03:46;33.70;;;15.70;;
65597;SDS011;52267;51.984;20.956;2023-02-03T07:06:13;24.30;;;10.70;;
65597;SDS011;52267;51.984;20.956;2023-02-03T07:08:40;24.10;;;13.10;;
65597;SDS011;52267;51.984;20.956;2023-02-03T07:11:07;18.90;;;9.10;;
65597;SDS011;52267;51.984;20.956;2023-02-03T07:13:35;27.40;;;11.40;;
65597;SDS011;52267;51.984;20.956;2023-02-03T07:16:03;20.70;;;9.80;;
65597;SDS011;52267;51.984;20.956;2023-02-03T07:18:30;19.70;;;8.20;;
65597;SDS011;52267;51.984;20.956;2023-02-03T07:20:57;13.70;;;6.50;;
65597;SDS011;52267;51.984;20.956;2023-02-03T07:23:24;18.30;;;8.60;;
65597;SDS011;52267;51.984;20.956;2023-02-03T07:25:51;15.40;;;6.70;;
65597;SDS011;52267;51.984;20.956;2023-02-03T07:28:18;16.50;;;7.90;;
65597;SDS011;52267;51.984;20.956;2023-02-03T07:30:47;13.20;;;6.00;;
65597;SDS011;52267;51.984;20.956;2023-02-03T07:33:14;9.50;;;5.40;;
65597;SDS011;52267;51.984;20.956;2023-02-03T07:35:42;10.00;;;5.50;;
65597;SDS011;52267;51.984;20.956;2023-02-03T07:38:09;9.00;;;5.10;;
65597;SDS011;52267;51.984;20.956;2023-02-03T07:40:36;10.70;;;5.30;;
65597;SDS011;52267;51.984;20.956;2023-02-03T07:43:03;9.20;;;5.80;;
65597;SDS011;52267;51.984;20.956;2023-02-03T07:45:30;8.80;;;4.80;;
65597;SDS011;52267;51.984;20.956;2023-02-03T07:47:57;27.50;;;15.00;;
65597;SDS011;52267;51.984;20.956;2023-02-03T07:50:24;10.00;;;6.30;;
65597;SDS011;52267;51.984;20.956;2023-02-03T07:52:51;9.10;;;5.00;;
65597;SDS011;52267;51.984;20.956;2023-02-03T07:55:18;8.80;;;4.40;;
65597;SDS011;52267;51.984;20.956;2023-02-03T07:57:45;7.20;;;4.00;;
65597;SDS011;52267;51.984;20.956;2023-02-03T08:00:14;7.50;;;4.00;;
65597;SDS011;52267;51.984;20.956;2023-02-03T08:02:42;12.40;;;6.70;;
65597;SDS011;52267;51.984;20.956;2023-02-03T08:05:10;20.60;;;9.70;;
65597;SDS011;52267;51.984;20.956;2023-02-03T08:07:38;12.90;;;6.20;;
65597;SDS011;52267;51.984;20.956;2023-02-03T08:10:06;11.10;;;5.70;;
65597;SDS011;52267;51.984;20.956;2023-02-03T08:12:34;15.20;;;6.90;;
65597;SDS011;52267;51.984;20.956;2023-02-03T08:15:01;6.90;;;3.10;;
65597;SDS011;52267;51.984;20.956;2023-02-03T08:17:28;8.30;;;5.10;;
65597;SDS011;52267;51.984;20.956;2023-02-03T08:19:58;8.70;;;4.10;;
65597;SDS011;52267;51.984;20.956;2023-02-03T08:22:26;7.70;;;3.60;;
65597;SDS011;52267;51.984;20.956;2023-02-03T08:24:53;9.00;;;5.10;;
65597;SDS011;52267;51.984;20.956;2023-02-03T08:27:21;10.90;;;4.70;;
65597;SDS011;52267;51.984;20.956;2023-02-03T08:29:49;8.40;;;5.10;;
65597;SDS011;52267;51.984;20.956;2023-02-03T08:32:18;14.30;;;6.10;;
65597;SDS011;52267;51.984;20.956;2023-02-03T08:34:50;14.70;;;5.40;;
65597;SDS011;52267;51.984;20.956;2023-02-03T08:37:21;9.10;;;5.40;;
65597;SDS011;52267;51.984;20.956;2023-02-03T08:40:03;8.20;;;4.00;;
65597;SDS011;52267;51.984;20.956;2023-02-03T08:42:31;7.90;;;3.60;;
65597;SDS011;52267;51.984;20.956;2023-02-03T08:44:58;7.90;;;4.30;;
65597;SDS011;52267;51.984;20.956;2023-02-03T08:47:25;6.70;;;3.00;;
65597;SDS011;52267;51.984;20.956;2023-02-03T08:49:53;8.40;;;3.80;;
65597;SDS011;52267;51.984;20.956;2023-02-03T08:52:20;6.20;;;3.20;;
65597;SDS011;52267;51.984;20.956;2023-02-03T08:54:47;10.00;;;4.70;;
65597;SDS011;52267;51.984;20.956;2023-02-03T08:57:14;7.90;;;3.30;;
65597;SDS011;52267;51.984;20.956;2023-02-03T08:59:42;4.80;;;2.80;;
65597;SDS011;52267;51.984;20.956;2023-02-03T09:02:14;9.10;;;3.40;;
65597;SDS011;52267;51.984;20.956;2023-02-03T09:04:43;7.30;;;4.30;;
65597;SDS011;52267;51.984;20.956;2023-02-03T09:07:11;11.50;;;4.50;;
65597;SDS011;52267;51.984;20.956;2023-02-03T09:09:38;8.70;;;4.30;;
65597;SDS011;52267;51.984;20.956;2023-02-03T09:12:06;6.40;;;3.00;;
65597;SDS011;52267;51.984;20.956;2023-02-03T09:14:34;7.30;;;3.80;;
65597;SDS011;52267;51.984;20.956;2023-02-03T09:17:02;7.60;;;3.30;;
65597;SDS011;52267;51.984;20.956;2023-02-03T09:19:30;7.30;;;2.80;;
65597;SDS011;52267;51.984;20.956;2023-02-03T09:21:57;6.90;;;3.40;;
65597;SDS011;52267;51.984;20.956;2023-02-03T09:24:24;6.40;;;3.00;;
65597;SDS011;52267;51.984;20.956;2023-02-03T09:26:52;7.40;;;4.20;;
65597;SDS011;52267;51.984;20.956;2023-02-03T09:29:20;6.60;;;3.50;;
65597;SDS011;52267;51.984;20.956;2023-02-03T09:31:48;10.60;;;5.30;;
65597;SDS011;52267;51.984;20.956;2023-02-03T09:34:19;5.40;;;3.00;;
65597;SDS011;52267;51.984;20.956;2023-02-03T09:36:47;7.40;;;3.50;;
65597;SDS011;52267;51.984;20.956;2023-02-03T09:39:14;8.10;;;4.00;;
65597;SDS011;52267;51.984;20.956;2023-02-03T09:47:53;7.30;;;3.30;;
65597;SDS011;52267;51.984;20.956;2023-02-03T09:50:27;7.40;;;3.40;;
65597;SDS011;52267;51.984;20.956;2023-02-03T09:52:57;5.20;;;2.70;;
65597;SDS011;52267;51.984;20.956;2023-02-03T09:55:38;5.30;;;2.50;;
65597;SDS011;52267;51.984;20.956;2023-02-03T09:58:15;6.00;;;2.20;;
65597;SDS011;52267;51.984;20.956;2023-02-03T10:00:49;5.70;;;3.30;;
65597;SDS011;52267;51.984;20.956;2023-02-03T10:06:42;10.00;;;2.10;;
65597;SDS011;52267;51.984;20.956;2023-02-03T10:11:56;5.00;;;2.00;;
65597;SDS011;52267;51.984;20.956;2023-02-03T10:17:54;6.40;;;2.90;;
65597;SDS011;52267;51.984;20.956;2023-02-03T10:20:39;5.70;;;3.00;;
65597;SDS011;52267;51.984;20.956;2023-02-03T10:23:13;9.30;;;3.40;;
65597;SDS011;52267;51.984;20.956;2023-02-03T10:25:49;4.30;;;2.20;;
65597;SDS011;52267;51.984;20.956;2023-02-03T10:28:30;5.60;;;2.50;;
65597;SDS011;52267;51.984;20.956;2023-02-03T10:31:11;7.20;;;3.00;;
65597;SDS011;52267;51.984;20.956;2023-02-03T10:33:43;5.60;;;2.20;;
65597;SDS011;52267;51.984;20.956;2023-02-03T10:36:20;5.40;;;1.90;;
65597;SDS011;52267;51.984;20.956;2023-02-03T10:39:02;5.50;;;2.60;;
65597;SDS011;52267;51.984;20.956;2023-02-03T10:42:11;5.00;;;2.50;;
65597;SDS011;52267;51.984;20.956;2023-02-03T10:47:23;6.30;;;2.50;;
65597;SDS011;52267;51.984;20.956;2023-02-03T10:49:56;5.00;;;2.10;;
65597;SDS011;52267;51.984;20.956;2023-02-03T10:52:30;3.60;;;2.30;;
65597;SDS011;52267;51.984;20.956;2023-02-03T10:57:46;5.50;;;2.30;;
65597;SDS011;52267;51.984;20.956;2023-02-03T11:02:44;6.00;;;2.60;;
65597;SDS011;52267;51.984;20.956;2023-02-03T11:05:19;4.70;;;2.00;;
65597;SDS011;52267;51.984;20.956;2023-02-03T11:07:48;4.20;;;2.20;;
65597;SDS011;52267;51.984;20.956;2023-02-03T11:10:47;5.90;;;2.60;;
65597;SDS011;52267;51.984;20.956;2023-02-03T11:13:24;4.00;;;1.70;;
65597;SDS011;52267;51.984;20.956;2023-02-03T11:16:11;5.70;;;2.20;;
65597;SDS011;52267;51.984;20.956;2023-02-03T11:26:19;5.00;;;2.20;;
65597;SDS011;52267;51.984;20.956;2023-02-03T11:28:51;4.70;;;2.40;;
65597;SDS011;52267;51.984;20.956;2023-02-03T11:31:22;8.90;;;3.60;;
65597;SDS011;52267;51.984;20.956;2023-02-03T11:34:01;5.50;;;2.80;;
65597;SDS011;52267;51.984;20.956;2023-02-03T11:36:33;6.70;;;3.30;;
65597;SDS011;52267;51.984;20.956;2023-02-03T11:41:47;6.20;;;2.60;;
65597;SDS011;52267;51.984;20.956;2023-02-03T11:44:19;5.10;;;2.10;;
65597;SDS011;52267;51.984;20.956;2023-02-03T11:47:08;4.00;;;2.40;;
65597;SDS011;52267;51.984;20.956;2023-02-03T11:56:28;5.70;;;2.70;;
65597;SDS011;52267;51.984;20.956;2023-02-03T11:59:21;5.10;;;2.60;;
65597;SDS011;52267;51.984;20.956;2023-02-03T12:05:01;7.40;;;3.70;;
65597;SDS011;52267;51.984;20.956;2023-02-03T12:08:05;8.50;;;3.10;;
65597;SDS011;52267;51.984;20.956;2023-02-03T12:10:51;6.20;;;2.60;;
65597;SDS011;52267;51.984;20.956;2023-02-03T12:13:33;6.30;;;2.90;;
65597;SDS011;52267;51.984;20.956;2023-02-03T12:16:30;8.10;;;3.90;;
65597;SDS011;52267;51.984;20.956;2023-02-03T12:19:17;7.20;;;3.40;;
65597;SDS011;52267;51.984;20.956;2023-02-03T12:21:55;5.70;;;3.00;;
65597;SDS011;52267;51.984;20.956;2023-02-03T12:24:55;4.60;;;2.50;;
65597;SDS011;52267;51.984;20.956;2023-02-03T12:27:48;5.20;;;2.50;;
65597;SDS011;52267;51.984;20.956;2023-02-03T12:30:26;5.10;;;2.50;;
65597;SDS011;52267;51.984;20.956;2023-02-03T12:32:59;9.40;;;4.20;;
65597;SDS011;52267;51.984;20.956;2023-02-03T12:35:49;6.10;;;2.80;;
65597;SDS011;52267;51.984;20.956;2023-02-03T12:38:45;6.90;;;3.60;;
65597;SDS011;52267;51.984;20.956;2023-02-03T12:42:12;8.50;;;3.60;;
65597;SDS011;52267;51.984;20.956;2023-02-03T12:44:49;7.40;;;4.60;;
65597;SDS011;52267;51.984;20.956;2023-02-03T12:50:46;7.20;;;3.40;;
65597;SDS011;52267;51.984;20.956;2023-02-03T12:53:20;7.20;;;4.50;;
65597;SDS011;52267;51.984;20.956;2023-02-03T12:56:19;6.70;;;3.70;;
65597;SDS011;52267;51.984;20.956;2023-02-03T12:58:54;8.20;;;3.70;;
65597;SDS011;52267;51.984;20.956;2023-02-03T13:01:25;7.50;;;3.60;;
65597;SDS011;52267;51.984;20.956;2023-02-03T13:07:23;10.20;;;4.70;;
65597;SDS011;52267;51.984;20.956;2023-02-03T13:09:59;7.60;;;3.30;;
65597;SDS011;52267;51.984;20.956;2023-02-03T13:12:37;6.20;;;3.80;;
65597;SDS011;52267;51.984;20.956;2023-02-03T13:20:38;6.90;;;4.10;;
65597;SDS011;52267;51.984;20.956;2023-02-03T13:23:09;8.20;;;4.20;;
65597;SDS011;52267;51.984;20.956;2023-02-03T13:26:04;5.00;;;2.90;;
65597;SDS011;52267;51.984;20.956;2023-02-03T13:41:21;10.60;;;4.20;;
65597;SDS011;52267;51.984;20.956;2023-02-03T13:43:56;7.40;;;4.20;;
65597;SDS011;52267;51.984;20.956;2023-02-03T13:46:27;10.80;;;5.90;;
65597;SDS011;52267;51.984;20.956;2023-02-03T13:49:01;12.90;;;6.10;;
65597;SDS011;52267;51.984;20.956;2023-02-03T13:51:43;9.80;;;5.30;;
65597;SDS011;52267;51.984;20.956;2023-02-03T13:54:36;10.50;;;4.50;;
65597;SDS011;52267;51.984;20.956;2023-02-03T13:57:15;13.70;;;7.20;;
65597;SDS011;52267;51.984;20.956;2023-02-03T14:03:39;7.50;;;4.50;;
65597;SDS011;52267;51.984;20.956;2023-02-03T14:09:02;12.10;;;6.50;;
65597;SDS011;52267;51.984;20.956;2023-02-03T14:11:51;11.70;;;5.80;;
65597;SDS011;52267;51.984;20.956;2023-02-03T14:16:48;13.00;;;7.10;;
65597;SDS011;52267;51.984;20.956;2023-02-03T14:21:48;7.90;;;5.00;;
65597;SDS011;52267;51.984;20.956;2023-02-03T14:24:19;11.60;;;6.00;;
65597;SDS011;52267;51.984;20.956;2023-02-03T14:26:56;11.60;;;6.70;;
65597;SDS011;52267;51.984;20.956;2023-02-03T14:31:59;11.70;;;6.20;;
65597;SDS011;52267;51.984;20.956;2023-02-03T14:37:23;14.00;;;7.50;;
65597;SDS011;52267;51.984;20.956;2023-02-03T14:43:48;10.80;;;5.60;;
65597;SDS011;52267;51.984;20.956;2023-02-03T14:49:04;8.80;;;4.80;;
65597;SDS011;52267;51.984;20.956;2023-02-03T14:52:13;14.40;;;7.70;;
65597;SDS011;52267;51.984;20.956;2023-02-03T14:58:02;13.20;;;6.70;;
65597;SDS011;52267;51.984;20.956;2023-02-03T15:00:33;14.60;;;6.80;;
65597;SDS011;52267;51.984;20.956;2023-02-03T15:05:45;11.00;;;6.10;;
65597;SDS011;52267;51.984;20.956;2023-02-03T15:08:37;8.20;;;4.30;;
65597;SDS011;52267;51.984;20.956;2023-02-03T15:11:43;8.80;;;4.80;;
65597;SDS011;52267;51.984;20.956;2023-02-03T15:16:57;10.80;;;4.70;;
65597;SDS011;52267;51.984;20.956;2023-02-03T15:19:38;13.00;;;6.30;;
65597;SDS011;52267;51.984;20.956;2023-02-03T15:22:27;7.30;;;4.20;;
65597;SDS011;52267;51.984;20.956;2023-02-03T15:24:59;8.10;;;4.60;;
65597;SDS011;52267;51.984;20.956;2023-02-03T15:27:31;9.00;;;5.50;;
65597;SDS011;52267;51.984;20.956;2023-02-03T15:30:13;9.30;;;4.90;;
65597;SDS011;52267;51.984;20.956;2023-02-03T15:32:47;9.80;;;4.40;;
65597;SDS011;52267;51.984;20.956;2023-02-03T15:35:41;10.60;;;5.20;;
65597;SDS011;52267;51.984;20.956;2023-02-03T15:38:15;8.30;;;4.50;;
65597;SDS011;52267;51.984;20.956;2023-02-03T15:40:48;6.80;;;4.30;;
65597;SDS011;52267;51.984;20.956;2023-02-03T15:43:41;8.20;;;4.20;;
65597;SDS011;52267;51.984;20.956;2023-02-03T15:46:15;10.50;;;6.70;;
65597;SDS011;52267;51.984;20.956;2023-02-03T15:49:11;13.70;;;6.50;;
65597;SDS011;52267;51.984;20.956;2023-02-03T15:54:22;6.90;;;4.20;;
65597;SDS011;52267;51.984;20.956;2023-02-03T15:59:34;7.10;;;4.20;;
65597;SDS011;52267;51.984;20.956;2023-02-03T16:02:18;8.80;;;4.60;;
65597;SDS011;52267;51.984;20.956;2023-02-03T16:07:26;10.90;;;4.60;;
65597;SDS011;52267;51.984;20.956;2023-02-03T16:09:57;10.50;;;5.40;;
65597;SDS011;52267;51.984;20.956;2023-02-03T16:12:27;15.20;;;8.00;;
65597;SDS011;52267;51.984;20.956;2023-02-03T16:14:57;13.80;;;6.80;;
65597;SDS011;52267;51.984;20.956;2023-02-03T16:22:43;10.70;;;5.30;;
65597;SDS011;52267;51.984;20.956;2023-02-03T16:28:10;12.30;;;5.00;;
65597;SDS011;52267;51.984;20.956;2023-02-03T16:31:13;7.90;;;5.20;;
65597;SDS011;52267;51.984;20.956;2023-02-03T16:34:04;10.00;;;5.10;;
65597;SDS011;52267;51.984;20.956;2023-02-03T16:37:11;15.20;;;8.10;;
65597;SDS011;52267;51.984;20.956;2023-02-03T16:40:01;10.30;;;5.30;;
65597;SDS011;52267;51.984;20.956;2023-02-03T16:42:47;16.20;;;8.10;;
65597;SDS011;52267;51.984;20.956;2023-02-03T16:45:33;16.90;;;9.20;;
65597;SDS011;52267;51.984;20.956;2023-02-03T16:48:19;9.00;;;4.80;;
65597;SDS011;52267;51.984;20.956;2023-02-03T16:51:13;9.90;;;5.10;;
65597;SDS011;52267;51.984;20.956;2023-02-03T16:53:44;15.00;;;7.50;;
65597;SDS011;52267;51.984;20.956;2023-02-03T16:56:19;15.90;;;7.80;;
65597;SDS011;52267;51.984;20.956;2023-02-03T16:58:46;9.00;;;5.10;;
65597;SDS011;52267;51.984;20.956;2023-02-03T17:01:13;18.00;;;10.00;;
65597;SDS011;52267;51.984;20.956;2023-02-03T17:03:41;20.90;;;10.30;;
65597;SDS011;52267;51.984;20.956;2023-02-03T17:06:11;14.70;;;9.40;;
65597;SDS011;52267;51.984;20.956;2023-02-03T17:08:39;15.50;;;7.40;;
65597;SDS011;52267;51.984;20.956;2023-02-03T17:11:19;14.40;;;7.40;;
65597;SDS011;52267;51.984;20.956;2023-02-03T17:13:47;10.70;;;5.80;;
65597;SDS011;52267;51.984;20.956;2023-02-03T17:16:17;14.40;;;8.10;;
65597;SDS011;52267;51.984;20.956;2023-02-03T17:18:46;9.50;;;4.80;;
65597;SDS011;52267;51.984;20.956;2023-02-03T17:21:30;11.90;;;5.70;;
65597;SDS011;52267;51.984;20.956;2023-02-03T17:24:00;9.70;;;5.20;;
65597;SDS011;52267;51.984;20.956;2023-02-03T17:26:28;12.20;;;7.90;;
65597;SDS011;52267;51.984;20.956;2023-02-03T17:28:56;14.10;;;7.00;;
65597;SDS011;52267;51.984;20.956;2023-02-03T17:31:29;11.10;;;5.70;;
65597;SDS011;52267;51.984;20.956;2023-02-03T17:33:59;10.70;;;5.50;;
65597;SDS011;52267;51.984;20.956;2023-02-03T17:36:26;16.60;;;7.20;;